Domov               UVHVVR             MKGP            O straneh              
ZDRAVSTVENO VARSTVO RASTLIN
  MREŽA AGROMET. POSTAJ
 ► PROGNOSTIČNA OBVESTILA
AGROMETEOROLOŠKI PODATKI -
ARSO
OBVLADOVANJE TVEGANJ ZARADI
NEUGODNIH VREMENSKIH RAZMER
  ► NARAVNE NESREČE
  ► SUŠA/MOČA
  ► NAMAKANJE
  ► ŽLED (gozdarstvo)
KARTOGRAFSKI PRIKAZI
SPLETNE POVEZAVE
PROJEKTI IN PUBLIKACIJE

AGROMETEOROLOŠKA MREŽA: VREMENSKE POSTAJE IN FENOLOŠKA OPAZOVANJA

Pregled podatkov za lokacijo Parižlje, meteorološka postaja 24303

Pregled senzorjev na lokaciji

ID Ime Zadnja
vrednost
Datum
zadnje
spremembe
Tip
senzorja
1493 Temperatura 2 m (°C) 0,39 °C 15.12.2017 20:00 Generic -40 - +60 °C
1494 Relativna vlaga 2 m (% RH) 96,51 % RH 15.12.2017 20:00 Generic 0 - 100 %
1495 Omočenost lista (U) 10 U 15.12.2017 20:00 A730WET
1496 Padavine (mm) 1 mm 15.12.2017 20:00
2139 Sončno sevanje (W/m2) 0 W/m2 15.12.2017 20:00 MS-020VM 1400 W/m²

Pregled podatkov zadnjih 24 ur

Zap.
št.
Datum in čas Parižlje
Omočenost
lista
Padavine Relativna
vlaga
2
m
Sončno
sevanje
Temperatura
2
m
0 15.12.2017 20:00 10 1 96,51 0 0,39
1 15.12.2017 19:30 3 1,6 95,43 0 0,93
2 15.12.2017 19:00 7 3,4 94,16 0 1,51
3 15.12.2017 18:30 4 3,2 90,87 0 2,81
4 15.12.2017 18:00 4 2,8 93,19 0 3,37
5 15.12.2017 17:30 9 1,6 93,48 0 3,83
6 15.12.2017 17:00 8 0,4 92,75 0 4,3
7 15.12.2017 16:30 4 0,2 92,53 0 5,03
8 15.12.2017 16:00 10 2 93,28 0,34 5,49
9 15.12.2017 15:30 9 1 93,48 2,39 5,57
10 15.12.2017 15:00 8 1,6 93,11 3,42 5,76
11 15.12.2017 14:30 4 1,4 91,23 6,15 6,84
12 15.12.2017 14:00 5 3,2 90,45 3,42 7,57
13 15.12.2017 13:30 9 0,6 83,88 10,26 8,25
14 15.12.2017 13:00 5 0,4 79,95 12,65 8,45
15 15.12.2017 12:30 6 2,6 87,77 6,15 8,5
16 15.12.2017 12:00 5 0,8 84,47 14,02 9,08
17 15.12.2017 11:30 4 0,6 85,08 22,56 9,38
18 15.12.2017 11:00 9 0,6 83,37 31,45 9,87
19 15.12.2017 10:30 10 0 78,12 52,99 9,87
20 15.12.2017 10:00 10 0,2 82,74 48,89 9,16
21 15.12.2017 09:30 10 0 86,2 27,35 8,5
22 15.12.2017 09:00 10 0 85,89 20,17 8,57
23 15.12.2017 08:30 8 0,2 84,71 7,18 8,47
24 15.12.2017 08:00 9 0 83,35 2,05 8,45
25 15.12.2017 07:30 6 0,2 84,74 0 8,21
26 15.12.2017 07:00 4 0,4 83,49 0 8,18
27 15.12.2017 06:30 6 0,6 85,49 0 8,18
28 15.12.2017 06:00 10 0,2 82,2 0 8,4
29 15.12.2017 05:30 10 0 81,64 0 8,35
30 15.12.2017 05:00 10 0 82,56 0 8,3
31 15.12.2017 04:30 10 0 81,93 0 8,3
32 15.12.2017 04:00 10 0,6 83,88 0 8,47
33 15.12.2017 03:30 10 0,6 82,34 0 8,45
34 15.12.2017 03:00 10 0 84,37 0 8,21
35 15.12.2017 02:30 10 0,4 83,54 0 8,4
36 15.12.2017 02:00 10 0,4 82,15 0 8,62
37 15.12.2017 01:30 10 0,4 84,52 0 6,91
38 15.12.2017 01:00 10 0 92,72 0 5,76
39 15.12.2017 00:30 9 0 92,75 0 5,52
40 15.12.2017 00:00 10 0 91,89 0 5,52
41 14.12.2017 23:30 10 0,2 89,77 0 6,57
42 14.12.2017 23:00 10 0 92,26 0 5,49
43 14.12.2017 22:30 10 0,4 92,19 0 5,23
44 14.12.2017 22:00 10 0 92,92 0 5,32
45 14.12.2017 21:30 10 0 89,01 0 5,59
46 14.12.2017 21:00 10 0 90,04 0 5,96
© 2011 Ministrstvo za kmetijstvo, gozdarstvo in prehrano. Vse pravice pridržane.